sensor_id;sensor_type;location;lat;lon;timestamp;pressure;altitude;pressure_sealevel;temperature;humidity
41706;BME280;27385;51.096;17.190;2023-04-07T00:02:16;100516.76;;;3.86;69.62
41706;BME280;27385;51.096;17.190;2023-04-07T00:04:47;100517.03;;;3.84;69.86
41706;BME280;27385;51.096;17.190;2023-04-07T00:07:18;100513.46;;;3.81;70.05
41706;BME280;27385;51.096;17.190;2023-04-07T00:09:48;100512.80;;;3.79;70.41
41706;BME280;27385;51.096;17.190;2023-04-07T00:12:19;100512.04;;;3.74;71.06
41706;BME280;27385;51.096;17.190;2023-04-07T00:14:50;100512.08;;;3.68;71.41
41706;BME280;27385;51.096;17.190;2023-04-07T00:17:21;100508.25;;;3.59;72.19
41706;BME280;27385;51.096;17.190;2023-04-07T00:19:51;100506.48;;;3.52;72.88
41706;BME280;27385;51.096;17.190;2023-04-07T00:22:22;100505.27;;;3.46;73.00
41706;BME280;27385;51.096;17.190;2023-04-07T00:24:53;100499.81;;;3.39;73.24
41706;BME280;27385;51.096;17.190;2023-04-07T00:27:24;100495.80;;;3.35;73.20
41706;BME280;27385;51.096;17.190;2023-04-07T00:29:55;100494.45;;;3.31;73.90
41706;BME280;27385;51.096;17.190;2023-04-07T00:32:26;100490.45;;;3.26;74.08
41706;BME280;27385;51.096;17.190;2023-04-07T00:34:57;100489.36;;;3.21;74.33
41706;BME280;27385;51.096;17.190;2023-04-07T00:37:28;100486.49;;;3.18;74.83
41706;BME280;27385;51.096;17.190;2023-04-07T00:39:59;100484.64;;;3.17;75.08
41706;BME280;27385;51.096;17.190;2023-04-07T00:42:30;100482.96;;;3.13;75.16
41706;BME280;27385;51.096;17.190;2023-04-07T00:45:02;100479.70;;;3.11;76.18
41706;BME280;27385;51.096;17.190;2023-04-07T00:47:33;100475.32;;;3.09;76.15
41706;BME280;27385;51.096;17.190;2023-04-07T00:50:06;100477.09;;;3.07;75.70
41706;BME280;27385;51.096;17.190;2023-04-07T00:52:37;100477.71;;;3.08;75.72
41706;BME280;27385;51.096;17.190;2023-04-07T00:55:09;100477.45;;;3.09;75.39
41706;BME280;27385;51.096;17.190;2023-04-07T00:57:40;100469.33;;;3.10;77.29
41706;BME280;27385;51.096;17.190;2023-04-07T01:00:12;100463.95;;;3.07;76.85
41706;BME280;27385;51.096;17.190;2023-04-07T01:02:47;100460.21;;;3.04;76.36
41706;BME280;27385;51.096;17.190;2023-04-07T01:05:28;100459.60;;;3.03;77.11
41706;BME280;27385;51.096;17.190;2023-04-07T01:08:06;100460.29;;;3.00;77.40
41706;BME280;27385;51.096;17.190;2023-04-07T01:10:43;100460.80;;;2.98;77.25
41706;BME280;27385;51.096;17.190;2023-04-07T01:13:24;100459.50;;;2.95;77.67
41706;BME280;27385;51.096;17.190;2023-04-07T01:15:59;100460.14;;;2.91;78.15
41706;BME280;27385;51.096;17.190;2023-04-07T01:18:32;100459.02;;;2.87;77.83
41706;BME280;27385;51.096;17.190;2023-04-07T01:21:08;100462.40;;;2.88;77.47
41706;BME280;27385;51.096;17.190;2023-04-07T01:23:57;100465.75;;;2.90;77.51
41706;BME280;27385;51.096;17.190;2023-04-07T01:26:31;100461.63;;;2.91;78.74
41706;BME280;27385;51.096;17.190;2023-04-07T01:31:48;100456.40;;;2.84;78.72
41706;BME280;27385;51.096;17.190;2023-04-07T01:34:20;100452.14;;;2.80;78.59
41706;BME280;27385;51.096;17.190;2023-04-07T01:36:52;100456.82;;;2.79;78.83
41706;BME280;27385;51.096;17.190;2023-04-07T01:39:25;100454.10;;;2.77;79.01
41706;BME280;27385;51.096;17.190;2023-04-07T01:41:56;100445.27;;;2.73;79.78
41706;BME280;27385;51.096;17.190;2023-04-07T01:44:32;100447.55;;;2.68;80.77
41706;BME280;27385;51.096;17.190;2023-04-07T01:47:05;100442.09;;;2.61;80.68
41706;BME280;27385;51.096;17.190;2023-04-07T01:49:36;100442.71;;;2.57;80.71
41706;BME280;27385;51.096;17.190;2023-04-07T01:52:08;100441.81;;;2.54;80.89
41706;BME280;27385;51.096;17.190;2023-04-07T01:54:39;100442.56;;;2.51;81.04
41706;BME280;27385;51.096;17.190;2023-04-07T01:57:11;100436.83;;;2.47;81.37
41706;BME280;27385;51.096;17.190;2023-04-07T01:59:41;100432.95;;;2.42;81.89
41706;BME280;27385;51.096;17.190;2023-04-07T02:02:12;100431.85;;;2.38;81.80
41706;BME280;27385;51.096;17.190;2023-04-07T02:04:51;100430.02;;;2.34;82.15
41706;BME280;27385;51.096;17.190;2023-04-07T02:07:28;100430.68;;;2.32;81.93
41706;BME280;27385;51.096;17.190;2023-04-07T02:10:02;100427.86;;;2.31;82.21
41706;BME280;27385;51.096;17.190;2023-04-07T02:12:37;100426.70;;;2.30;82.65
41706;BME280;27385;51.096;17.190;2023-04-07T02:15:11;100432.15;;;2.29;82.36
41706;BME280;27385;51.096;17.190;2023-04-07T02:17:43;100430.16;;;2.30;82.39
41706;BME280;27385;51.096;17.190;2023-04-07T02:20:16;100425.60;;;2.30;82.81
41706;BME280;27385;51.096;17.190;2023-04-07T02:22:48;100423.02;;;2.33;82.28
41706;BME280;27385;51.096;17.190;2023-04-07T02:25:26;100414.59;;;2.35;82.80
41706;BME280;27385;51.096;17.190;2023-04-07T02:27:59;100416.59;;;2.37;82.38
41706;BME280;27385;51.096;17.190;2023-04-07T02:30:30;100414.99;;;2.39;82.85
41706;BME280;27385;51.096;17.190;2023-04-07T02:33:01;100413.48;;;2.39;82.59
41706;BME280;27385;51.096;17.190;2023-04-07T02:35:32;100413.33;;;2.39;83.09
41706;BME280;27385;51.096;17.190;2023-04-07T02:38:02;100415.05;;;2.40;83.12
41706;BME280;27385;51.096;17.190;2023-04-07T02:40:33;100413.10;;;2.39;83.06
41706;BME280;27385;51.096;17.190;2023-04-07T02:43:05;100409.17;;;2.38;82.88
41706;BME280;27385;51.096;17.190;2023-04-07T02:45:35;100410.86;;;2.36;83.15
41706;BME280;27385;51.096;17.190;2023-04-07T02:48:06;100407.77;;;2.34;83.58
41706;BME280;27385;51.096;17.190;2023-04-07T02:50:38;100404.70;;;2.32;83.42
41706;BME280;27385;51.096;17.190;2023-04-07T02:53:10;100400.33;;;2.30;83.72
41706;BME280;27385;51.096;17.190;2023-04-07T02:55:40;100405.07;;;2.29;83.81
41706;BME280;27385;51.096;17.190;2023-04-07T02:58:11;100404.14;;;2.28;83.21
41706;BME280;27385;51.096;17.190;2023-04-07T03:00:42;100406.15;;;2.26;83.62
41706;BME280;27385;51.096;17.190;2023-04-07T03:03:13;100397.94;;;2.23;83.87
41706;BME280;27385;51.096;17.190;2023-04-07T03:05:44;100403.88;;;2.20;83.59
41706;BME280;27385;51.096;17.190;2023-04-07T03:08:15;100406.25;;;2.20;83.44
41706;BME280;27385;51.096;17.190;2023-04-07T03:10:45;100417.49;;;2.20;83.52
41706;BME280;27385;51.096;17.190;2023-04-07T03:13:17;100419.61;;;2.21;83.19
41706;BME280;27385;51.096;17.190;2023-04-07T03:15:48;100415.70;;;2.25;83.39
41706;BME280;27385;51.096;17.190;2023-04-07T03:18:19;100414.08;;;2.27;83.31
41706;BME280;27385;51.096;17.190;2023-04-07T03:20:50;100409.88;;;2.29;83.27
41706;BME280;27385;51.096;17.190;2023-04-07T03:23:23;100408.02;;;2.31;83.38
41706;BME280;27385;51.096;17.190;2023-04-07T03:25:54;100406.64;;;2.34;83.44
41706;BME280;27385;51.096;17.190;2023-04-07T03:28:26;100409.38;;;2.35;83.40
41706;BME280;27385;51.096;17.190;2023-04-07T03:30:57;100411.54;;;2.38;83.53
41706;BME280;27385;51.096;17.190;2023-04-07T03:33:27;100414.02;;;2.40;83.56
41706;BME280;27385;51.096;17.190;2023-04-07T03:35:58;100415.51;;;2.41;83.74
41706;BME280;27385;51.096;17.190;2023-04-07T03:38:29;100413.68;;;2.41;83.53
41706;BME280;27385;51.096;17.190;2023-04-07T03:41:00;100409.15;;;2.44;83.65
41706;BME280;27385;51.096;17.190;2023-04-07T03:43:31;100409.44;;;2.45;83.64
41706;BME280;27385;51.096;17.190;2023-04-07T03:46:02;100408.73;;;2.49;83.60
41706;BME280;27385;51.096;17.190;2023-04-07T03:48:33;100408.77;;;2.52;83.72
41706;BME280;27385;51.096;17.190;2023-04-07T03:51:04;100404.84;;;2.53;83.69
41706;BME280;27385;51.096;17.190;2023-04-07T03:53:35;100401.91;;;2.53;83.66
41706;BME280;27385;51.096;17.190;2023-04-07T03:56:06;100402.48;;;2.56;83.80
41706;BME280;27385;51.096;17.190;2023-04-07T03:58:37;100396.65;;;2.57;83.85
41706;BME280;27385;51.096;17.190;2023-04-07T04:01:11;100399.46;;;2.58;83.84
41706;BME280;27385;51.096;17.190;2023-04-07T04:03:42;100396.07;;;2.59;84.03
41706;BME280;27385;51.096;17.190;2023-04-07T04:06:12;100400.50;;;2.62;84.05
41706;BME280;27385;51.096;17.190;2023-04-07T04:08:43;100401.63;;;2.65;84.14
41706;BME280;27385;51.096;17.190;2023-04-07T04:11:14;100400.58;;;2.66;84.47
41706;BME280;27385;51.096;17.190;2023-04-07T04:13:45;100398.74;;;2.63;84.34
41706;BME280;27385;51.096;17.190;2023-04-07T04:16:16;100396.20;;;2.60;84.43
41706;BME280;27385;51.096;17.190;2023-04-07T04:18:47;100400.02;;;2.59;84.49
41706;BME280;27385;51.096;17.190;2023-04-07T04:21:18;100398.94;;;2.56;84.43
41706;BME280;27385;51.096;17.190;2023-04-07T04:23:49;100403.92;;;2.55;84.22
41706;BME280;27385;51.096;17.190;2023-04-07T04:26:19;100403.36;;;2.56;84.41
41706;BME280;27385;51.096;17.190;2023-04-07T04:28:54;100406.40;;;2.53;84.75
41706;BME280;27385;51.096;17.190;2023-04-07T04:31:25;100406.48;;;2.52;84.40
41706;BME280;27385;51.096;17.190;2023-04-07T04:33:55;100407.88;;;2.54;84.56
41706;BME280;27385;51.096;17.190;2023-04-07T04:36:26;100409.30;;;2.53;84.66
41706;BME280;27385;51.096;17.190;2023-04-07T04:38:57;100407.19;;;2.53;84.93
41706;BME280;27385;51.096;17.190;2023-04-07T04:41:28;100405.76;;;2.50;84.84
41706;BME280;27385;51.096;17.190;2023-04-07T04:43:59;100403.16;;;2.49;84.87
41706;BME280;27385;51.096;17.190;2023-04-07T04:46:30;100401.91;;;2.49;85.07
41706;BME280;27385;51.096;17.190;2023-04-07T04:49:01;100403.58;;;2.48;84.87
41706;BME280;27385;51.096;17.190;2023-04-07T04:51:32;100402.02;;;2.47;84.77
41706;BME280;27385;51.096;17.190;2023-04-07T04:54:03;100399.00;;;2.48;84.80
41706;BME280;27385;51.096;17.190;2023-04-07T04:56:34;100397.48;;;2.45;85.16
41706;BME280;27385;51.096;17.190;2023-04-07T04:59:05;100400.23;;;2.41;85.05
41706;BME280;27385;51.096;17.190;2023-04-07T05:01:36;100401.34;;;2.40;84.97
41706;BME280;27385;51.096;17.190;2023-04-07T05:04:07;100405.41;;;2.42;84.82
41706;BME280;27385;51.096;17.190;2023-04-07T05:06:38;100407.98;;;2.47;84.94
41706;BME280;27385;51.096;17.190;2023-04-07T05:09:09;100410.95;;;2.50;84.89
41706;BME280;27385;51.096;17.190;2023-04-07T05:11:41;100408.41;;;2.50;84.84
41706;BME280;27385;51.096;17.190;2023-04-07T05:14:12;100403.43;;;2.51;84.90
41706;BME280;27385;51.096;17.190;2023-04-07T05:16:43;100404.05;;;2.53;84.85
41706;BME280;27385;51.096;17.190;2023-04-07T05:19:14;100402.45;;;2.54;85.09
41706;BME280;27385;51.096;17.190;2023-04-07T05:21:45;100401.71;;;2.51;85.19
41706;BME280;27385;51.096;17.190;2023-04-07T05:24:16;100404.37;;;2.47;85.54
41706;BME280;27385;51.096;17.190;2023-04-07T05:26:47;100406.98;;;2.46;85.16
41706;BME280;27385;51.096;17.190;2023-04-07T05:29:18;100411.30;;;2.48;85.25
41706;BME280;27385;51.096;17.190;2023-04-07T05:31:49;100411.41;;;2.50;85.29
41706;BME280;27385;51.096;17.190;2023-04-07T05:34:20;100408.30;;;2.53;85.41
41706;BME280;27385;51.096;17.190;2023-04-07T05:36:50;100408.26;;;2.51;85.79
41706;BME280;27385;51.096;17.190;2023-04-07T05:39:21;100407.42;;;2.48;85.48
41706;BME280;27385;51.096;17.190;2023-04-07T05:41:52;100405.47;;;2.48;85.60
41706;BME280;27385;51.096;17.190;2023-04-07T05:44:23;100404.48;;;2.45;85.64
41706;BME280;27385;51.096;17.190;2023-04-07T05:46:54;100403.89;;;2.44;85.87
41706;BME280;27385;51.096;17.190;2023-04-07T05:49:25;100403.37;;;2.41;85.78
41706;BME280;27385;51.096;17.190;2023-04-07T05:51:56;100405.64;;;2.42;85.98
41706;BME280;27385;51.096;17.190;2023-04-07T05:54:26;100406.35;;;2.42;86.24
41706;BME280;27385;51.096;17.190;2023-04-07T05:56:57;100409.91;;;2.41;86.50
41706;BME280;27385;51.096;17.190;2023-04-07T05:59:28;100411.05;;;2.39;86.12
41706;BME280;27385;51.096;17.190;2023-04-07T06:01:59;100407.04;;;2.39;86.38
41706;BME280;27385;51.096;17.190;2023-04-07T06:04:31;100408.56;;;2.36;86.50
41706;BME280;27385;51.096;17.190;2023-04-07T06:07:03;100410.98;;;2.38;86.43
41706;BME280;27385;51.096;17.190;2023-04-07T06:09:34;100406.98;;;2.38;86.48
41706;BME280;27385;51.096;17.190;2023-04-07T06:12:06;100405.27;;;2.36;86.77
41706;BME280;27385;51.096;17.190;2023-04-07T06:14:37;100404.83;;;2.34;86.57
41706;BME280;27385;51.096;17.190;2023-04-07T06:17:08;100405.22;;;2.35;86.72
41706;BME280;27385;51.096;17.190;2023-04-07T06:19:39;100406.90;;;2.37;86.89
41706;BME280;27385;51.096;17.190;2023-04-07T06:22:10;100408.36;;;2.40;86.87
41706;BME280;27385;51.096;17.190;2023-04-07T06:24:41;100405.48;;;2.42;86.75
41706;BME280;27385;51.096;17.190;2023-04-07T06:27:12;100409.19;;;2.47;86.82
41706;BME280;27385;51.096;17.190;2023-04-07T06:29:44;100412.05;;;2.50;86.94
41706;BME280;27385;51.096;17.190;2023-04-07T06:32:15;100413.52;;;2.51;86.93
41706;BME280;27385;51.096;17.190;2023-04-07T06:34:45;100412.17;;;2.52;86.94
41706;BME280;27385;51.096;17.190;2023-04-07T06:37:16;100411.89;;;2.50;86.96
41706;BME280;27385;51.096;17.190;2023-04-07T06:39:48;100407.59;;;2.49;86.95
41706;BME280;27385;51.096;17.190;2023-04-07T06:42:19;100406.91;;;2.46;87.47
41706;BME280;27385;51.096;17.190;2023-04-07T06:44:50;100405.63;;;2.43;87.33
41706;BME280;27385;51.096;17.190;2023-04-07T06:47:20;100402.04;;;2.41;87.79
41706;BME280;27385;51.096;17.190;2023-04-07T06:49:52;100400.47;;;2.41;87.85
41706;BME280;27385;51.096;17.190;2023-04-07T06:52:23;100399.70;;;2.39;87.91
41706;BME280;27385;51.096;17.190;2023-04-07T06:54:54;100402.61;;;2.39;88.03
41706;BME280;27385;51.096;17.190;2023-04-07T06:57:25;100402.48;;;2.38;88.33
41706;BME280;27385;51.096;17.190;2023-04-07T06:59:55;100401.70;;;2.37;88.38
41706;BME280;27385;51.096;17.190;2023-04-07T07:02:26;100397.02;;;2.35;88.62
41706;BME280;27385;51.096;17.190;2023-04-07T07:04:57;100394.60;;;2.34;88.42
41706;BME280;27385;51.096;17.190;2023-04-07T07:07:28;100393.23;;;2.35;88.57
41706;BME280;27385;51.096;17.190;2023-04-07T07:09:59;100390.70;;;2.37;88.96
41706;BME280;27385;51.096;17.190;2023-04-07T07:12:30;100390.75;;;2.38;89.27
41706;BME280;27385;51.096;17.190;2023-04-07T07:15:01;100395.63;;;2.39;88.95
41706;BME280;27385;51.096;17.190;2023-04-07T07:17:33;100398.52;;;2.39;88.91
41706;BME280;27385;51.096;17.190;2023-04-07T07:20:06;100392.46;;;2.40;88.82
41706;BME280;27385;51.096;17.190;2023-04-07T07:22:37;100391.05;;;2.39;89.12
41706;BME280;27385;51.096;17.190;2023-04-07T07:25:09;100396.61;;;2.40;89.25
41706;BME280;27385;51.096;17.190;2023-04-07T07:27:39;100396.19;;;2.43;89.61
41706;BME280;27385;51.096;17.190;2023-04-07T07:30:11;100405.01;;;2.46;89.27
41706;BME280;27385;51.096;17.190;2023-04-07T07:32:42;100404.97;;;2.49;89.30
41706;BME280;27385;51.096;17.190;2023-04-07T07:35:13;100406.30;;;2.50;89.26
41706;BME280;27385;51.096;17.190;2023-04-07T07:37:44;100408.95;;;2.52;89.32
41706;BME280;27385;51.096;17.190;2023-04-07T07:40:16;100412.94;;;2.53;89.22
41706;BME280;27385;51.096;17.190;2023-04-07T07:42:47;100412.61;;;2.54;89.30
41706;BME280;27385;51.096;17.190;2023-04-07T07:45:18;100417.29;;;2.56;89.22
41706;BME280;27385;51.096;17.190;2023-04-07T07:47:49;100418.67;;;2.58;89.50
41706;BME280;27385;51.096;17.190;2023-04-07T07:50:20;100419.55;;;2.58;89.27
41706;BME280;27385;51.096;17.190;2023-04-07T07:52:51;100422.70;;;2.58;89.35
41706;BME280;27385;51.096;17.190;2023-04-07T07:55:22;100421.04;;;2.58;89.25
41706;BME280;27385;51.096;17.190;2023-04-07T07:57:53;100422.02;;;2.60;89.60
41706;BME280;27385;51.096;17.190;2023-04-07T08:00:24;100423.05;;;2.60;89.48
41706;BME280;27385;51.096;17.190;2023-04-07T08:02:56;100426.13;;;2.61;89.45
41706;BME280;27385;51.096;17.190;2023-04-07T08:05:28;100423.92;;;2.60;89.46
41706;BME280;27385;51.096;17.190;2023-04-07T08:08:00;100426.90;;;2.61;89.55
41706;BME280;27385;51.096;17.190;2023-04-07T08:10:31;100430.55;;;2.64;89.56
41706;BME280;27385;51.096;17.190;2023-04-07T08:13:02;100426.92;;;2.64;89.82
41706;BME280;27385;51.096;17.190;2023-04-07T08:15:33;100429.98;;;2.64;89.96
41706;BME280;27385;51.096;17.190;2023-04-07T08:18:05;100427.67;;;2.65;89.69
41706;BME280;27385;51.096;17.190;2023-04-07T08:20:36;100426.13;;;2.68;89.77
41706;BME280;27385;51.096;17.190;2023-04-07T08:23:07;100425.50;;;2.72;89.94
41706;BME280;27385;51.096;17.190;2023-04-07T08:25:38;100426.07;;;2.76;89.81
41706;BME280;27385;51.096;17.190;2023-04-07T08:28:09;100425.63;;;2.79;89.67
41706;BME280;27385;51.096;17.190;2023-04-07T08:30:40;100419.29;;;2.80;89.56
41706;BME280;27385;51.096;17.190;2023-04-07T08:33:10;100413.55;;;2.84;89.73
41706;BME280;27385;51.096;17.190;2023-04-07T08:35:41;100407.95;;;2.89;89.90
41706;BME280;27385;51.096;17.190;2023-04-07T08:38:13;100411.28;;;2.96;89.97
41706;BME280;27385;51.096;17.190;2023-04-07T08:40:44;100414.45;;;3.03;90.31
41706;BME280;27385;51.096;17.190;2023-04-07T08:43:18;100419.17;;;3.07;89.91
41706;BME280;27385;51.096;17.190;2023-04-07T08:45:50;100420.02;;;3.07;89.67
41706;BME280;27385;51.096;17.190;2023-04-07T08:48:23;100420.94;;;3.09;90.05
41706;BME280;27385;51.096;17.190;2023-04-07T08:50:57;100411.30;;;3.10;89.91
41706;BME280;27385;51.096;17.190;2023-04-07T08:53:35;100414.28;;;3.15;89.84
41706;BME280;27385;51.096;17.190;2023-04-07T08:56:08;100412.73;;;3.18;90.05
41706;BME280;27385;51.096;17.190;2023-04-07T08:58:41;100416.08;;;3.20;90.26
41706;BME280;27385;51.096;17.190;2023-04-07T09:01:13;100415.83;;;3.20;90.14
41706;BME280;27385;51.096;17.190;2023-04-07T09:03:45;100422.82;;;3.22;89.86
41706;BME280;27385;51.096;17.190;2023-04-07T09:06:17;100422.27;;;3.22;90.20
41706;BME280;27385;51.096;17.190;2023-04-07T09:08:49;100418.20;;;3.24;90.07
41706;BME280;27385;51.096;17.190;2023-04-07T09:11:20;100417.39;;;3.29;90.31
41706;BME280;27385;51.096;17.190;2023-04-07T09:13:52;100413.94;;;3.33;90.19
41706;BME280;27385;51.096;17.190;2023-04-07T09:16:25;100413.10;;;3.38;89.83
41706;BME280;27385;51.096;17.190;2023-04-07T09:18:58;100417.36;;;3.42;90.02
41706;BME280;27385;51.096;17.190;2023-04-07T09:21:52;100420.59;;;3.42;89.86
41706;BME280;27385;51.096;17.190;2023-04-07T09:24:25;100417.02;;;3.39;89.92
41706;BME280;27385;51.096;17.190;2023-04-07T09:27:17;100415.26;;;3.37;89.72
41706;BME280;27385;51.096;17.190;2023-04-07T09:29:48;100418.17;;;3.34;89.85
41706;BME280;27385;51.096;17.190;2023-04-07T09:32:36;100411.45;;;3.30;89.90
41706;BME280;27385;51.096;17.190;2023-04-07T09:35:08;100414.05;;;3.30;90.05
41706;BME280;27385;51.096;17.190;2023-04-07T09:37:39;100410.04;;;3.30;90.43
41706;BME280;27385;51.096;17.190;2023-04-07T09:40:11;100409.07;;;3.31;90.22
41706;BME280;27385;51.096;17.190;2023-04-07T09:43:04;100406.04;;;3.33;90.18
41706;BME280;27385;51.096;17.190;2023-04-07T09:45:35;100411.20;;;3.39;90.64
41706;BME280;27385;51.096;17.190;2023-04-07T09:48:17;100409.52;;;3.47;90.56
41706;BME280;27385;51.096;17.190;2023-04-07T09:50:49;100410.34;;;3.53;90.43
41706;BME280;27385;51.096;17.190;2023-04-07T09:53:21;100410.77;;;3.59;90.34
41706;BME280;27385;51.096;17.190;2023-04-07T09:56:16;100410.11;;;3.60;90.12
41706;BME280;27385;51.096;17.190;2023-04-07T09:58:48;100415.29;;;3.61;90.29
41706;BME280;27385;51.096;17.190;2023-04-07T10:01:21;100413.65;;;3.60;90.35
41706;BME280;27385;51.096;17.190;2023-04-07T10:03:52;100407.52;;;3.60;90.14
41706;BME280;27385;51.096;17.190;2023-04-07T10:06:25;100406.94;;;3.61;90.49
41706;BME280;27385;51.096;17.190;2023-04-07T10:08:56;100405.88;;;3.59;90.22
41706;BME280;27385;51.096;17.190;2023-04-07T10:11:27;100409.19;;;3.58;90.23
41706;BME280;27385;51.096;17.190;2023-04-07T10:14:00;100408.44;;;3.60;90.42
41706;BME280;27385;51.096;17.190;2023-04-07T10:16:32;100408.68;;;3.63;90.66
41706;BME280;27385;51.096;17.190;2023-04-07T10:19:04;100410.03;;;3.67;90.46
41706;BME280;27385;51.096;17.190;2023-04-07T10:21:38;100409.13;;;3.69;90.41
41706;BME280;27385;51.096;17.190;2023-04-07T10:24:17;100405.04;;;3.69;90.51
41706;BME280;27385;51.096;17.190;2023-04-07T10:26:53;100402.03;;;3.69;90.70
41706;BME280;27385;51.096;17.190;2023-04-07T10:29:26;100402.67;;;3.72;90.65
41706;BME280;27385;51.096;17.190;2023-04-07T10:32:01;100396.89;;;3.76;90.76
41706;BME280;27385;51.096;17.190;2023-04-07T10:34:58;100398.00;;;3.79;90.62
41706;BME280;27385;51.096;17.190;2023-04-07T10:37:29;100399.20;;;3.78;91.11
41706;BME280;27385;51.096;17.190;2023-04-07T10:40:29;100401.69;;;3.73;91.31
41706;BME280;27385;51.096;17.190;2023-04-07T10:43:01;100399.46;;;3.71;91.16
41706;BME280;27385;51.096;17.190;2023-04-07T10:45:52;100398.73;;;3.71;91.60
41706;BME280;27385;51.096;17.190;2023-04-07T10:48:25;100398.26;;;3.72;91.43
41706;BME280;27385;51.096;17.190;2023-04-07T10:51:14;100403.92;;;3.72;91.63
41706;BME280;27385;51.096;17.190;2023-04-07T10:54:18;100404.52;;;3.74;91.72
41706;BME280;27385;51.096;17.190;2023-04-07T10:57:14;100406.42;;;3.73;91.99
41706;BME280;27385;51.096;17.190;2023-04-07T11:00:14;100408.04;;;3.72;92.01
41706;BME280;27385;51.096;17.190;2023-04-07T11:02:46;100406.40;;;3.71;91.77
41706;BME280;27385;51.096;17.190;2023-04-07T11:05:23;100410.46;;;3.69;92.33
41706;BME280;27385;51.096;17.190;2023-04-07T11:07:55;100415.86;;;3.68;92.24
41706;BME280;27385;51.096;17.190;2023-04-07T11:10:27;100418.00;;;3.67;92.28
41706;BME280;27385;51.096;17.190;2023-04-07T11:13:08;100414.77;;;3.67;92.42
41706;BME280;27385;51.096;17.190;2023-04-07T11:15:40;100415.16;;;3.71;92.50
41706;BME280;27385;51.096;17.190;2023-04-07T11:18:13;100411.66;;;3.72;92.36
41706;BME280;27385;51.096;17.190;2023-04-07T11:20:49;100408.70;;;3.70;92.38
41706;BME280;27385;51.096;17.190;2023-04-07T11:23:22;100406.83;;;3.70;92.58
41706;BME280;27385;51.096;17.190;2023-04-07T11:26:00;100405.10;;;3.69;92.54
41706;BME280;27385;51.096;17.190;2023-04-07T11:28:32;100401.34;;;3.68;92.85
41706;BME280;27385;51.096;17.190;2023-04-07T11:31:04;100403.47;;;3.68;93.01
41706;BME280;27385;51.096;17.190;2023-04-07T11:33:36;100405.23;;;3.67;93.26
41706;BME280;27385;51.096;17.190;2023-04-07T11:36:08;100402.19;;;3.65;93.04
41706;BME280;27385;51.096;17.190;2023-04-07T11:38:40;100403.52;;;3.66;93.14
41706;BME280;27385;51.096;17.190;2023-04-07T11:41:14;100399.13;;;3.67;93.16
41706;BME280;27385;51.096;17.190;2023-04-07T11:43:45;100403.92;;;3.69;93.22
41706;BME280;27385;51.096;17.190;2023-04-07T11:46:17;100398.10;;;3.68;93.05
41706;BME280;27385;51.096;17.190;2023-04-07T11:48:48;100398.44;;;3.71;93.41
41706;BME280;27385;51.096;17.190;2023-04-07T11:51:21;100395.16;;;3.69;93.31
41706;BME280;27385;51.096;17.190;2023-04-07T11:53:56;100391.61;;;3.69;93.42
41706;BME280;27385;51.096;17.190;2023-04-07T11:56:27;100392.01;;;3.72;93.45
41706;BME280;27385;51.096;17.190;2023-04-07T11:58:58;100389.39;;;3.76;93.90
41706;BME280;27385;51.096;17.190;2023-04-07T12:01:40;100392.00;;;3.76;93.42
41706;BME280;27385;51.096;17.190;2023-04-07T12:04:12;100389.37;;;3.77;93.41
41706;BME280;27385;51.096;17.190;2023-04-07T12:06:45;100389.81;;;3.82;93.61
41706;BME280;27385;51.096;17.190;2023-04-07T12:09:30;100387.02;;;3.87;93.61
41706;BME280;27385;51.096;17.190;2023-04-07T12:12:05;100389.42;;;3.92;93.85
41706;BME280;27385;51.096;17.190;2023-04-07T12:14:36;100386.86;;;3.94;93.87
41706;BME280;27385;51.096;17.190;2023-04-07T12:17:13;100383.73;;;3.96;93.65
41706;BME280;27385;51.096;17.190;2023-04-07T12:19:50;100384.92;;;3.98;93.46
41706;BME280;27385;51.096;17.190;2023-04-07T12:22:21;100380.01;;;4.03;93.46
41706;BME280;27385;51.096;17.190;2023-04-07T12:24:52;100380.86;;;4.07;93.23
41706;BME280;27385;51.096;17.190;2023-04-07T12:27:23;100377.87;;;4.09;93.43
41706;BME280;27385;51.096;17.190;2023-04-07T12:29:54;100378.59;;;4.13;93.16
41706;BME280;27385;51.096;17.190;2023-04-07T12:32:25;100376.68;;;4.14;93.07
41706;BME280;27385;51.096;17.190;2023-04-07T12:34:57;100378.95;;;4.17;93.28
41706;BME280;27385;51.096;17.190;2023-04-07T12:37:28;100376.88;;;4.18;92.84
41706;BME280;27385;51.096;17.190;2023-04-07T12:39:59;100371.16;;;4.19;93.44
41706;BME280;27385;51.096;17.190;2023-04-07T12:42:29;100373.16;;;4.22;93.22
41706;BME280;27385;51.096;17.190;2023-04-07T12:45:00;100364.75;;;4.23;93.08
41706;BME280;27385;51.096;17.190;2023-04-07T12:47:31;100366.09;;;4.23;92.98
41706;BME280;27385;51.096;17.190;2023-04-07T12:50:02;100365.91;;;4.21;92.90
41706;BME280;27385;51.096;17.190;2023-04-07T12:52:33;100368.10;;;4.22;92.88
41706;BME280;27385;51.096;17.190;2023-04-07T12:55:05;100364.17;;;4.24;93.14
41706;BME280;27385;51.096;17.190;2023-04-07T12:57:36;100369.48;;;4.26;93.13
41706;BME280;27385;51.096;17.190;2023-04-07T13:00:09;100368.63;;;4.26;93.02
41706;BME280;27385;51.096;17.190;2023-04-07T13:02:42;100371.88;;;4.26;92.84
41706;BME280;27385;51.096;17.190;2023-04-07T13:05:14;100371.22;;;4.23;92.83
41706;BME280;27385;51.096;17.190;2023-04-07T13:07:47;100367.14;;;4.22;93.04
41706;BME280;27385;51.096;17.190;2023-04-07T13:10:19;100366.54;;;4.24;93.09
41706;BME280;27385;51.096;17.190;2023-04-07T13:12:51;100362.52;;;4.27;93.17
41706;BME280;27385;51.096;17.190;2023-04-07T13:15:23;100362.77;;;4.27;92.81
41706;BME280;27385;51.096;17.190;2023-04-07T13:17:55;100359.04;;;4.24;92.89
41706;BME280;27385;51.096;17.190;2023-04-07T13:20:27;100363.49;;;4.23;92.93
41706;BME280;27385;51.096;17.190;2023-04-07T13:22:58;100364.30;;;4.22;92.92